createdAt,value
2024-01-08T00:07:12.183Z,-2.57
2024-01-08T00:29:44.133Z,-2.52
2024-01-08T00:52:16.060Z,-2.52
2024-01-08T01:14:47.975Z,-2.50
2024-01-08T01:37:19.869Z,-2.37
2024-01-08T01:59:51.832Z,-2.28
2024-01-08T02:22:23.847Z,-2.32
2024-01-08T02:44:57.288Z,-2.31
2024-01-08T03:07:29.279Z,-2.36
2024-01-08T03:30:01.260Z,-2.35
2024-01-08T03:52:33.424Z,-2.28
2024-01-08T04:15:06.562Z,-2.18
2024-01-08T04:37:38.465Z,-2.08
2024-01-08T05:00:13.030Z,-2.08
2024-01-08T05:22:44.996Z,-2.07
2024-01-08T05:45:17.024Z,-2.09
2024-01-08T06:07:50.187Z,-1.99
2024-01-08T06:30:22.256Z,-1.87
2024-01-08T06:52:54.317Z,-1.77
2024-01-08T07:15:50.226Z,-1.72
2024-01-08T07:38:23.290Z,-1.62
2024-01-08T08:00:55.431Z,-1.58
2024-01-08T08:23:27.435Z,-1.46
2024-01-08T08:46:03.025Z,-1.10
2024-01-08T09:08:35.308Z,-1.01
2024-01-08T09:31:08.585Z,-0.98
2024-01-08T09:53:40.608Z,-1.14
2024-01-08T10:16:15.638Z,-0.91
2024-01-08T10:38:50.809Z,-0.94
2024-01-08T11:01:23.107Z,-0.89
2024-01-08T11:23:55.038Z,1.57
2024-01-08T11:46:26.958Z,2.90
2024-01-08T12:08:59.015Z,10.68
2024-01-08T12:31:36.168Z,4.39
2024-01-08T12:54:09.202Z,0.82
2024-01-08T13:16:42.673Z,-0.37
2024-01-08T13:39:14.929Z,-0.80
2024-01-08T14:01:46.883Z,-0.96
2024-01-08T14:24:19.881Z,-1.15
2024-01-08T14:46:51.918Z,-1.28
2024-01-08T15:09:24.727Z,-1.58
2024-01-08T15:31:57.230Z,-1.99
2024-01-08T15:54:29.764Z,-2.25
2024-01-08T16:17:02.244Z,-2.48
2024-01-08T16:39:34.323Z,-2.68
2024-01-08T17:02:06.483Z,-2.82
2024-01-08T17:24:38.557Z,-2.87
2024-01-08T17:47:10.672Z,-2.95
2024-01-08T18:09:43.370Z,-3.15
2024-01-08T18:32:16.403Z,-3.19
2024-01-08T18:54:48.409Z,-3.33
2024-01-08T19:17:20.312Z,-3.47
2024-01-08T19:39:52.212Z,-3.56
2024-01-08T20:02:25.360Z,-3.70
2024-01-08T20:24:58.894Z,-3.80
2024-01-08T20:47:30.939Z,-3.92
2024-01-08T21:10:05.060Z,-3.95
2024-01-08T21:32:38.997Z,-3.92
2024-01-08T21:55:13.207Z,-4.01
2024-01-08T22:17:45.188Z,-4.11
2024-01-08T22:40:17.613Z,-4.31
2024-01-08T23:02:49.706Z,-4.49
2024-01-08T23:25:21.668Z,-4.65
2024-01-08T23:47:53.698Z,-4.88
